Ana Sayfa
METAR-TAF:

METAR-TAF

Havaalanları :

Sharurah, Suudi Arabistan

Enlem: 17-28N, Boylam: 047-07E, yükseklik: 720 m

Güncel hava durumu gözlemi

Rapor saat 21:00 UTC de 1 saat ve 5 dakika önce yapıldı.
Rüzgar doğudan 6 kt
Sıcaklık 30°C
Nem 11%
Basınç 1012 hPa
Görüş mesafesi 10 km veya daha fazla
1500 m altında bulut yok ve kümülonimbus yok

METAR: OESH 212100Z 08006KT CAVOK 30/M04 Q1012 NOSIG

Saat: 01:05 (22:05 UTC)

Tahmin

Rapor saat 11:00 UTC de 11 saat ve 5 dakika önce yapıldı.
Ayın 21'si saat 12 UTC'den ayın 22'si saat 18 UTC'ye kadar geçerli Tahmin
Rüzgar kuzeydoğudan 12 kt
Görüş mesafesi: 7000 m
Dönüşüyor
ayın 21'si saat 22 UTC'den ayın 22'si saat 00 UTC'ye kadar
Rüzgar güneydoğudan 10 kt
Görüş mesafesi 10 km veya daha fazla
1500 m altında bulut yok ve kümülonimbus yok
Dönüşüyor
ayın 22'si saat 10 UTC'den ayın 22'si saat 12 UTC'ye kadar
Rüzgar kuzeydoğudan 12 kt

TAF: OESH 211100Z 2112/2218 05012KT 7000 NSC BECMG 2122/2200 13010KT CAVOK BECMG 2210/2212 04012KT

4.000'den fazla havaalanı için hava durumu gözlemleri ve tahminleri (METAR ve TAF raporları).

Kullanılabilir istasyonlar harita üzerinde sarı ve kırmızı noktalarla gösterilir.

İstasyonun adını görmek için fareyi noktanın üzerinde gezdirin.

Sonrasında hava gözlem ve tahminlerini görmek için tıklayın.

Haritayı değiştirmek için: yaklaştırmak için siyah artı işaretli yeşil düğmeye ve uzaklaştırmak için de eksi işaretli düğmeye hızla tıklayın; bitişik haritalar için yeşil okları kullanın.


METAR-TAF: